sensor_id;sensor_type;location;lat;lon;timestamp;P1;durP1;ratioP1;P2;durP2;ratioP2
71303;SDS011;59091;47.446;19.148;2023-06-10T00:00:53;13.02;;;9.35;;
71303;SDS011;59091;47.446;19.148;2023-06-10T00:03:18;12.98;;;9.55;;
71303;SDS011;59091;47.446;19.148;2023-06-10T00:05:44;15.02;;;9.50;;
71303;SDS011;59091;47.446;19.148;2023-06-10T00:08:09;9.32;;;8.25;;
71303;SDS011;59091;47.446;19.148;2023-06-10T00:10:36;15.18;;;9.32;;
71303;SDS011;59091;47.446;19.148;2023-06-10T00:13:06;11.98;;;8.90;;
71303;SDS011;59091;47.446;19.148;2023-06-10T00:15:36;11.02;;;8.57;;
71303;SDS011;59091;47.446;19.148;2023-06-10T00:18:02;11.88;;;8.63;;
71303;SDS011;59091;47.446;19.148;2023-06-10T00:20:28;13.60;;;8.88;;
71303;SDS011;59091;47.446;19.148;2023-06-10T00:22:55;11.35;;;8.68;;
71303;SDS011;59091;47.446;19.148;2023-06-10T00:25:22;11.48;;;8.68;;
71303;SDS011;59091;47.446;19.148;2023-06-10T00:27:48;13.05;;;8.02;;
71303;SDS011;59091;47.446;19.148;2023-06-10T00:30:13;10.65;;;8.48;;
71303;SDS011;59091;47.446;19.148;2023-06-10T00:32:39;13.02;;;8.82;;
71303;SDS011;59091;47.446;19.148;2023-06-10T00:35:05;10.07;;;8.40;;
71303;SDS011;59091;47.446;19.148;2023-06-10T00:37:31;17.08;;;8.57;;
71303;SDS011;59091;47.446;19.148;2023-06-10T00:39:57;10.05;;;8.30;;
71303;SDS011;59091;47.446;19.148;2023-06-10T00:42:23;8.75;;;7.68;;
71303;SDS011;59091;47.446;19.148;2023-06-10T00:44:53;9.90;;;7.53;;
71303;SDS011;59091;47.446;19.148;2023-06-10T00:47:19;9.93;;;7.43;;
71303;SDS011;59091;47.446;19.148;2023-06-10T00:49:45;12.02;;;7.90;;
71303;SDS011;59091;47.446;19.148;2023-06-10T00:52:12;11.63;;;7.78;;
71303;SDS011;59091;47.446;19.148;2023-06-10T00:54:39;10.38;;;7.43;;
71303;SDS011;59091;47.446;19.148;2023-06-10T00:57:05;9.60;;;6.97;;
71303;SDS011;59091;47.446;19.148;2023-06-10T00:59:31;11.27;;;7.70;;
71303;SDS011;59091;47.446;19.148;2023-06-10T01:01:57;8.40;;;7.03;;
71303;SDS011;59091;47.446;19.148;2023-06-10T01:04:23;9.20;;;7.05;;
71303;SDS011;59091;47.446;19.148;2023-06-10T01:09:38;9.43;;;6.90;;
71303;SDS011;59091;47.446;19.148;2023-06-10T01:12:09;9.00;;;6.90;;
71303;SDS011;59091;47.446;19.148;2023-06-10T01:14:41;8.43;;;6.93;;
71303;SDS011;59091;47.446;19.148;2023-06-10T01:17:10;10.05;;;6.75;;
71303;SDS011;59091;47.446;19.148;2023-06-10T01:19:37;10.40;;;6.85;;
71303;SDS011;59091;47.446;19.148;2023-06-10T01:22:02;10.90;;;6.50;;
71303;SDS011;59091;47.446;19.148;2023-06-10T01:24:29;15.23;;;7.20;;
71303;SDS011;59091;47.446;19.148;2023-06-10T01:26:58;11.25;;;6.97;;
71303;SDS011;59091;47.446;19.148;2023-06-10T01:29:28;12.10;;;6.82;;
71303;SDS011;59091;47.446;19.148;2023-06-10T01:32:06;8.93;;;6.43;;
71303;SDS011;59091;47.446;19.148;2023-06-10T01:34:36;8.57;;;6.90;;
71303;SDS011;59091;47.446;19.148;2023-06-10T01:37:04;8.88;;;7.18;;
71303;SDS011;59091;47.446;19.148;2023-06-10T01:39:29;23.73;;;7.47;;
71303;SDS011;59091;47.446;19.148;2023-06-10T01:41:57;9.38;;;7.13;;
71303;SDS011;59091;47.446;19.148;2023-06-10T01:44:23;11.90;;;7.60;;
71303;SDS011;59091;47.446;19.148;2023-06-10T01:46:49;10.07;;;7.75;;
71303;SDS011;59091;47.446;19.148;2023-06-10T01:49:15;13.43;;;7.78;;
71303;SDS011;59091;47.446;19.148;2023-06-10T01:51:41;11.40;;;8.20;;
71303;SDS011;59091;47.446;19.148;2023-06-10T01:54:06;9.85;;;7.13;;
71303;SDS011;59091;47.446;19.148;2023-06-10T01:56:32;14.60;;;7.00;;
71303;SDS011;59091;47.446;19.148;2023-06-10T01:58:58;9.88;;;7.53;;
71303;SDS011;59091;47.446;19.148;2023-06-10T02:01:28;9.25;;;7.25;;
71303;SDS011;59091;47.446;19.148;2023-06-10T02:03:54;10.20;;;7.25;;
71303;SDS011;59091;47.446;19.148;2023-06-10T02:06:19;10.35;;;7.13;;
71303;SDS011;59091;47.446;19.148;2023-06-10T02:08:45;8.98;;;7.03;;
71303;SDS011;59091;47.446;19.148;2023-06-10T02:11:10;9.20;;;7.10;;
71303;SDS011;59091;47.446;19.148;2023-06-10T02:13:37;8.45;;;7.05;;
71303;SDS011;59091;47.446;19.148;2023-06-10T02:16:03;7.55;;;6.70;;
71303;SDS011;59091;47.446;19.148;2023-06-10T02:18:29;8.35;;;6.70;;
71303;SDS011;59091;47.446;19.148;2023-06-10T02:20:54;8.20;;;7.15;;
71303;SDS011;59091;47.446;19.148;2023-06-10T02:23:19;10.13;;;6.78;;
71303;SDS011;59091;47.446;19.148;2023-06-10T02:25:45;8.75;;;6.75;;
71303;SDS011;59091;47.446;19.148;2023-06-10T02:28:12;8.75;;;6.68;;
71303;SDS011;59091;47.446;19.148;2023-06-10T02:30:40;9.75;;;6.45;;
71303;SDS011;59091;47.446;19.148;2023-06-10T02:33:07;8.68;;;6.82;;
71303;SDS011;59091;47.446;19.148;2023-06-10T02:35:36;8.07;;;6.72;;
71303;SDS011;59091;47.446;19.148;2023-06-10T02:38:03;13.18;;;7.40;;
71303;SDS011;59091;47.446;19.148;2023-06-10T02:40:29;7.72;;;6.90;;
71303;SDS011;59091;47.446;19.148;2023-06-10T02:42:54;9.27;;;6.60;;
71303;SDS011;59091;47.446;19.148;2023-06-10T02:45:20;9.75;;;6.43;;
71303;SDS011;59091;47.446;19.148;2023-06-10T02:47:45;9.90;;;6.95;;
71303;SDS011;59091;47.446;19.148;2023-06-10T02:50:10;9.73;;;6.60;;
71303;SDS011;59091;47.446;19.148;2023-06-10T02:52:36;7.57;;;6.18;;
71303;SDS011;59091;47.446;19.148;2023-06-10T02:55:02;13.43;;;7.10;;
71303;SDS011;59091;47.446;19.148;2023-06-10T02:57:28;12.30;;;6.80;;
71303;SDS011;59091;47.446;19.148;2023-06-10T02:59:53;12.52;;;6.43;;
71303;SDS011;59091;47.446;19.148;2023-06-10T03:02:19;9.90;;;6.40;;
71303;SDS011;59091;47.446;19.148;2023-06-10T03:04:45;8.82;;;6.20;;
71303;SDS011;59091;47.446;19.148;2023-06-10T03:07:10;11.38;;;5.93;;
71303;SDS011;59091;47.446;19.148;2023-06-10T03:09:36;7.35;;;5.65;;
71303;SDS011;59091;47.446;19.148;2023-06-10T03:12:01;6.88;;;5.93;;
71303;SDS011;59091;47.446;19.148;2023-06-10T03:14:27;10.80;;;6.00;;
71303;SDS011;59091;47.446;19.148;2023-06-10T03:16:53;8.68;;;6.05;;
71303;SDS011;59091;47.446;19.148;2023-06-10T03:19:18;6.65;;;6.00;;
71303;SDS011;59091;47.446;19.148;2023-06-10T03:21:49;8.50;;;5.93;;
71303;SDS011;59091;47.446;19.148;2023-06-10T03:24:20;9.55;;;5.80;;
71303;SDS011;59091;47.446;19.148;2023-06-10T03:26:45;7.70;;;5.78;;
71303;SDS011;59091;47.446;19.148;2023-06-10T03:29:11;8.65;;;5.97;;
71303;SDS011;59091;47.446;19.148;2023-06-10T03:31:36;9.45;;;6.28;;
71303;SDS011;59091;47.446;19.148;2023-06-10T03:34:02;9.82;;;6.30;;
71303;SDS011;59091;47.446;19.148;2023-06-10T03:36:27;12.13;;;6.65;;
71303;SDS011;59091;47.446;19.148;2023-06-10T03:38:54;8.50;;;6.18;;
71303;SDS011;59091;47.446;19.148;2023-06-10T03:41:21;10.27;;;6.28;;
71303;SDS011;59091;47.446;19.148;2023-06-10T03:43:47;7.95;;;6.32;;
71303;SDS011;59091;47.446;19.148;2023-06-10T03:46:13;9.70;;;6.40;;
71303;SDS011;59091;47.446;19.148;2023-06-10T03:48:38;6.78;;;6.03;;
71303;SDS011;59091;47.446;19.148;2023-06-10T03:51:04;7.20;;;5.93;;
71303;SDS011;59091;47.446;19.148;2023-06-10T03:53:30;10.38;;;5.93;;
71303;SDS011;59091;47.446;19.148;2023-06-10T03:55:55;6.75;;;5.13;;
71303;SDS011;59091;47.446;19.148;2023-06-10T03:58:22;5.80;;;5.25;;
71303;SDS011;59091;47.446;19.148;2023-06-10T04:00:48;9.90;;;5.97;;
71303;SDS011;59091;47.446;19.148;2023-06-10T04:03:14;13.13;;;6.80;;
71303;SDS011;59091;47.446;19.148;2023-06-10T04:05:40;9.27;;;6.00;;
71303;SDS011;59091;47.446;19.148;2023-06-10T04:08:06;9.23;;;6.03;;
71303;SDS011;59091;47.446;19.148;2023-06-10T04:10:32;8.50;;;6.20;;
71303;SDS011;59091;47.446;19.148;2023-06-10T04:12:58;8.15;;;5.93;;
71303;SDS011;59091;47.446;19.148;2023-06-10T04:15:24;7.38;;;5.72;;
71303;SDS011;59091;47.446;19.148;2023-06-10T04:17:50;6.72;;;5.43;;
71303;SDS011;59091;47.446;19.148;2023-06-10T04:20:16;7.32;;;5.90;;
71303;SDS011;59091;47.446;19.148;2023-06-10T04:22:41;8.45;;;5.20;;
71303;SDS011;59091;47.446;19.148;2023-06-10T04:25:08;6.78;;;5.00;;
71303;SDS011;59091;47.446;19.148;2023-06-10T04:27:34;5.22;;;4.72;;
71303;SDS011;59091;47.446;19.148;2023-06-10T04:29:59;8.02;;;4.88;;
71303;SDS011;59091;47.446;19.148;2023-06-10T04:32:25;8.20;;;4.60;;
71303;SDS011;59091;47.446;19.148;2023-06-10T04:34:51;6.20;;;4.65;;
71303;SDS011;59091;47.446;19.148;2023-06-10T04:37:17;5.05;;;4.00;;
71303;SDS011;59091;47.446;19.148;2023-06-10T04:39:43;4.90;;;4.40;;
71303;SDS011;59091;47.446;19.148;2023-06-10T04:42:08;5.47;;;4.57;;
71303;SDS011;59091;47.446;19.148;2023-06-10T04:44:34;8.07;;;4.40;;
71303;SDS011;59091;47.446;19.148;2023-06-10T04:46:59;4.57;;;4.05;;
71303;SDS011;59091;47.446;19.148;2023-06-10T04:49:25;6.38;;;4.22;;
71303;SDS011;59091;47.446;19.148;2023-06-10T04:51:50;5.13;;;4.07;;
71303;SDS011;59091;47.446;19.148;2023-06-10T04:54:16;4.47;;;4.07;;
71303;SDS011;59091;47.446;19.148;2023-06-10T04:56:42;10.05;;;4.13;;
71303;SDS011;59091;47.446;19.148;2023-06-10T04:59:07;6.57;;;3.67;;
71303;SDS011;59091;47.446;19.148;2023-06-10T05:01:32;4.78;;;3.50;;
71303;SDS011;59091;47.446;19.148;2023-06-10T05:03:58;8.98;;;3.90;;
71303;SDS011;59091;47.446;19.148;2023-06-10T05:06:23;5.70;;;3.88;;
71303;SDS011;59091;47.446;19.148;2023-06-10T05:08:49;9.70;;;3.45;;
71303;SDS011;59091;47.446;19.148;2023-06-10T05:11:14;7.72;;;3.35;;
71303;SDS011;59091;47.446;19.148;2023-06-10T05:13:41;4.65;;;3.15;;
71303;SDS011;59091;47.446;19.148;2023-06-10T05:16:07;4.65;;;2.95;;
71303;SDS011;59091;47.446;19.148;2023-06-10T05:18:34;6.57;;;3.20;;
71303;SDS011;59091;47.446;19.148;2023-06-10T05:21:00;5.97;;;3.20;;
71303;SDS011;59091;47.446;19.148;2023-06-10T05:23:26;4.45;;;3.47;;
71303;SDS011;59091;47.446;19.148;2023-06-10T05:25:52;7.88;;;3.30;;
71303;SDS011;59091;47.446;19.148;2023-06-10T05:28:17;4.75;;;3.33;;
71303;SDS011;59091;47.446;19.148;2023-06-10T05:30:43;6.75;;;3.10;;
71303;SDS011;59091;47.446;19.148;2023-06-10T05:33:08;4.22;;;3.33;;
71303;SDS011;59091;47.446;19.148;2023-06-10T05:35:34;3.55;;;3.13;;
71303;SDS011;59091;47.446;19.148;2023-06-10T05:37:59;4.97;;;3.00;;
71303;SDS011;59091;47.446;19.148;2023-06-10T05:40:25;3.63;;;3.10;;
71303;SDS011;59091;47.446;19.148;2023-06-10T05:42:50;4.15;;;3.30;;
71303;SDS011;59091;47.446;19.148;2023-06-10T05:45:15;5.53;;;3.13;;
71303;SDS011;59091;47.446;19.148;2023-06-10T05:47:41;3.33;;;3.03;;
71303;SDS011;59091;47.446;19.148;2023-06-10T05:50:07;4.93;;;2.83;;
71303;SDS011;59091;47.446;19.148;2023-06-10T05:52:34;7.47;;;2.97;;
71303;SDS011;59091;47.446;19.148;2023-06-10T05:55:05;4.35;;;2.90;;
71303;SDS011;59091;47.446;19.148;2023-06-10T05:57:31;4.47;;;3.28;;
71303;SDS011;59091;47.446;19.148;2023-06-10T05:59:56;3.88;;;3.58;;
71303;SDS011;59091;47.446;19.148;2023-06-10T06:02:22;4.15;;;3.10;;
71303;SDS011;59091;47.446;19.148;2023-06-10T06:04:47;3.75;;;3.20;;
71303;SDS011;59091;47.446;19.148;2023-06-10T06:07:13;4.88;;;3.20;;
71303;SDS011;59091;47.446;19.148;2023-06-10T06:09:38;5.20;;;3.85;;
71303;SDS011;59091;47.446;19.148;2023-06-10T06:12:04;5.35;;;3.70;;
71303;SDS011;59091;47.446;19.148;2023-06-10T06:14:31;3.58;;;3.30;;
71303;SDS011;59091;47.446;19.148;2023-06-10T06:16:59;6.53;;;3.80;;
71303;SDS011;59091;47.446;19.148;2023-06-10T06:19:25;4.65;;;3.55;;
71303;SDS011;59091;47.446;19.148;2023-06-10T06:21:50;5.53;;;4.63;;
71303;SDS011;59091;47.446;19.148;2023-06-10T06:24:16;4.68;;;3.47;;
71303;SDS011;59091;47.446;19.148;2023-06-10T06:26:41;7.07;;;4.72;;
71303;SDS011;59091;47.446;19.148;2023-06-10T06:29:07;4.72;;;4.32;;
71303;SDS011;59091;47.446;19.148;2023-06-10T06:31:32;6.32;;;4.50;;
71303;SDS011;59091;47.446;19.148;2023-06-10T06:33:58;4.25;;;3.85;;
71303;SDS011;59091;47.446;19.148;2023-06-10T06:36:23;7.38;;;3.90;;
71303;SDS011;59091;47.446;19.148;2023-06-10T06:38:49;6.18;;;4.38;;
71303;SDS011;59091;47.446;19.148;2023-06-10T06:41:14;7.55;;;5.93;;
71303;SDS011;59091;47.446;19.148;2023-06-10T06:43:39;5.93;;;5.38;;
71303;SDS011;59091;47.446;19.148;2023-06-10T06:46:05;7.47;;;5.28;;
71303;SDS011;59091;47.446;19.148;2023-06-10T06:48:30;8.50;;;6.30;;
71303;SDS011;59091;47.446;19.148;2023-06-10T06:50:56;6.05;;;5.55;;
71303;SDS011;59091;47.446;19.148;2023-06-10T06:53:22;11.68;;;5.35;;
71303;SDS011;59091;47.446;19.148;2023-06-10T06:55:48;5.75;;;5.25;;
71303;SDS011;59091;47.446;19.148;2023-06-10T06:58:13;6.15;;;5.55;;
71303;SDS011;59091;47.446;19.148;2023-06-10T07:00:39;8.15;;;7.30;;
71303;SDS011;59091;47.446;19.148;2023-06-10T07:03:04;6.65;;;6.05;;
71303;SDS011;59091;47.446;19.148;2023-06-10T07:05:30;6.28;;;5.60;;
71303;SDS011;59091;47.446;19.148;2023-06-10T07:07:56;6.40;;;5.70;;
71303;SDS011;59091;47.446;19.148;2023-06-10T07:10:22;7.50;;;5.85;;
71303;SDS011;59091;47.446;19.148;2023-06-10T07:12:48;6.80;;;5.85;;
71303;SDS011;59091;47.446;19.148;2023-06-10T07:15:13;6.68;;;5.97;;
71303;SDS011;59091;47.446;19.148;2023-06-10T07:17:39;4.68;;;4.28;;
71303;SDS011;59091;47.446;19.148;2023-06-10T07:20:04;6.57;;;5.80;;
71303;SDS011;59091;47.446;19.148;2023-06-10T07:22:30;7.00;;;6.15;;
71303;SDS011;59091;47.446;19.148;2023-06-10T07:24:56;10.55;;;7.07;;
71303;SDS011;59091;47.446;19.148;2023-06-10T07:27:22;10.15;;;9.15;;
71303;SDS011;59091;47.446;19.148;2023-06-10T07:29:47;9.02;;;7.03;;
71303;SDS011;59091;47.446;19.148;2023-06-10T07:32:13;6.47;;;5.80;;
71303;SDS011;59091;47.446;19.148;2023-06-10T07:34:38;8.02;;;6.13;;
71303;SDS011;59091;47.446;19.148;2023-06-10T07:37:04;6.63;;;6.03;;
71303;SDS011;59091;47.446;19.148;2023-06-10T07:39:30;9.48;;;6.00;;
71303;SDS011;59091;47.446;19.148;2023-06-10T07:41:55;6.38;;;5.88;;
71303;SDS011;59091;47.446;19.148;2023-06-10T07:44:22;7.25;;;6.55;;
71303;SDS011;59091;47.446;19.148;2023-06-10T07:46:48;8.30;;;7.50;;
71303;SDS011;59091;47.446;19.148;2023-06-10T07:49:13;8.38;;;7.47;;
71303;SDS011;59091;47.446;19.148;2023-06-10T07:51:39;10.18;;;7.22;;
71303;SDS011;59091;47.446;19.148;2023-06-10T07:54:04;9.15;;;7.47;;
71303;SDS011;59091;47.446;19.148;2023-06-10T07:56:30;8.40;;;7.45;;
71303;SDS011;59091;47.446;19.148;2023-06-10T07:58:55;8.50;;;7.57;;
71303;SDS011;59091;47.446;19.148;2023-06-10T08:01:22;8.02;;;7.20;;
71303;SDS011;59091;47.446;19.148;2023-06-10T08:03:47;13.15;;;8.35;;
71303;SDS011;59091;47.446;19.148;2023-06-10T08:06:13;10.88;;;8.52;;
71303;SDS011;59091;47.446;19.148;2023-06-10T08:08:39;8.43;;;7.18;;
71303;SDS011;59091;47.446;19.148;2023-06-10T08:11:07;10.02;;;8.05;;
71303;SDS011;59091;47.446;19.148;2023-06-10T08:13:33;11.82;;;8.55;;
71303;SDS011;59091;47.446;19.148;2023-06-10T08:15:58;10.32;;;7.75;;
71303;SDS011;59091;47.446;19.148;2023-06-10T08:18:24;9.80;;;8.25;;
71303;SDS011;59091;47.446;19.148;2023-06-10T08:20:49;17.98;;;8.32;;
71303;SDS011;59091;47.446;19.148;2023-06-10T08:23:15;10.18;;;8.00;;
71303;SDS011;59091;47.446;19.148;2023-06-10T08:25:40;12.35;;;8.07;;
71303;SDS011;59091;47.446;19.148;2023-06-10T08:28:06;9.70;;;8.70;;
71303;SDS011;59091;47.446;19.148;2023-06-10T08:30:31;10.60;;;8.52;;
71303;SDS011;59091;47.446;19.148;2023-06-10T08:32:56;11.45;;;8.70;;
71303;SDS011;59091;47.446;19.148;2023-06-10T08:35:22;10.15;;;8.73;;
71303;SDS011;59091;47.446;19.148;2023-06-10T08:37:47;11.77;;;8.68;;
71303;SDS011;59091;47.446;19.148;2023-06-10T08:40:13;10.60;;;8.95;;
71303;SDS011;59091;47.446;19.148;2023-06-10T08:42:53;14.13;;;8.85;;
71303;SDS011;59091;47.446;19.148;2023-06-10T08:45:30;12.15;;;8.70;;
71303;SDS011;59091;47.446;19.148;2023-06-10T08:48:00;12.48;;;9.07;;
71303;SDS011;59091;47.446;19.148;2023-06-10T08:50:31;11.43;;;8.88;;
71303;SDS011;59091;47.446;19.148;2023-06-10T08:53:04;10.57;;;8.95;;
71303;SDS011;59091;47.446;19.148;2023-06-10T08:55:32;12.45;;;8.68;;
71303;SDS011;59091;47.446;19.148;2023-06-10T08:58:03;12.68;;;9.25;;
71303;SDS011;59091;47.446;19.148;2023-06-10T09:00:29;13.65;;;9.40;;
71303;SDS011;59091;47.446;19.148;2023-06-10T09:02:56;13.32;;;9.15;;
71303;SDS011;59091;47.446;19.148;2023-06-10T09:05:22;13.10;;;9.38;;
71303;SDS011;59091;47.446;19.148;2023-06-10T09:07:48;10.55;;;8.50;;
71303;SDS011;59091;47.446;19.148;2023-06-10T09:10:14;11.50;;;9.15;;
71303;SDS011;59091;47.446;19.148;2023-06-10T09:12:39;9.98;;;8.70;;
71303;SDS011;59091;47.446;19.148;2023-06-10T09:15:06;11.27;;;9.00;;
71303;SDS011;59091;47.446;19.148;2023-06-10T09:17:32;11.73;;;9.68;;
71303;SDS011;59091;47.446;19.148;2023-06-10T09:19:59;11.57;;;10.05;;
71303;SDS011;59091;47.446;19.148;2023-06-10T09:22:27;14.30;;;9.90;;
71303;SDS011;59091;47.446;19.148;2023-06-10T09:25:14;14.65;;;9.82;;
71303;SDS011;59091;47.446;19.148;2023-06-10T09:27:51;17.08;;;10.82;;
71303;SDS011;59091;47.446;19.148;2023-06-10T09:32:56;14.48;;;9.60;;
71303;SDS011;59091;47.446;19.148;2023-06-10T09:35:24;16.63;;;12.63;;
71303;SDS011;59091;47.446;19.148;2023-06-10T09:37:54;23.08;;;11.43;;
71303;SDS011;59091;47.446;19.148;2023-06-10T09:40:20;14.23;;;11.60;;
71303;SDS011;59091;47.446;19.148;2023-06-10T09:42:46;16.60;;;8.75;;
71303;SDS011;59091;47.446;19.148;2023-06-10T09:45:19;12.52;;;10.60;;
71303;SDS011;59091;47.446;19.148;2023-06-10T09:47:46;12.10;;;10.13;;
71303;SDS011;59091;47.446;19.148;2023-06-10T09:50:12;12.13;;;10.82;;
71303;SDS011;59091;47.446;19.148;2023-06-10T09:52:37;12.40;;;11.15;;
71303;SDS011;59091;47.446;19.148;2023-06-10T09:55:04;17.77;;;12.65;;
71303;SDS011;59091;47.446;19.148;2023-06-10T09:57:33;12.85;;;11.55;;
71303;SDS011;59091;47.446;19.148;2023-06-10T09:59:59;11.57;;;10.48;;
71303;SDS011;59091;47.446;19.148;2023-06-10T10:02:24;9.80;;;8.80;;
71303;SDS011;59091;47.446;19.148;2023-06-10T10:04:50;17.92;;;9.77;;
71303;SDS011;59091;47.446;19.148;2023-06-10T10:07:15;13.57;;;9.68;;
71303;SDS011;59091;47.446;19.148;2023-06-10T10:09:41;11.23;;;10.13;;
71303;SDS011;59091;47.446;19.148;2023-06-10T10:12:12;10.75;;;9.75;;
71303;SDS011;59091;47.446;19.148;2023-06-10T10:14:39;19.50;;;10.85;;
71303;SDS011;59091;47.446;19.148;2023-06-10T10:17:15;11.30;;;9.32;;
71303;SDS011;59091;47.446;19.148;2023-06-10T10:20:03;11.82;;;8.82;;
71303;SDS011;59091;47.446;19.148;2023-06-10T10:22:32;10.75;;;9.45;;
71303;SDS011;59091;47.446;19.148;2023-06-10T10:25:08;10.60;;;9.32;;
71303;SDS011;59091;47.446;19.148;2023-06-10T10:27:38;10.27;;;9.15;;
71303;SDS011;59091;47.446;19.148;2023-06-10T10:30:09;10.98;;;8.75;;
71303;SDS011;59091;47.446;19.148;2023-06-10T10:33:20;9.65;;;8.85;;
71303;SDS011;59091;47.446;19.148;2023-06-10T10:35:43;10.00;;;9.00;;
71303;SDS011;59091;47.446;19.148;2023-06-10T10:38:10;9.57;;;8.68;;
71303;SDS011;59091;47.446;19.148;2023-06-10T10:40:36;10.32;;;9.43;;
71303;SDS011;59091;47.446;19.148;2023-06-10T10:43:02;11.15;;;7.35;;
71303;SDS011;59091;47.446;19.148;2023-06-10T10:45:29;8.60;;;7.80;;
71303;SDS011;59091;47.446;19.148;2023-06-10T10:47:55;9.00;;;8.10;;
71303;SDS011;59091;47.446;19.148;2023-06-10T10:50:22;10.13;;;8.20;;
71303;SDS011;59091;47.446;19.148;2023-06-10T10:52:56;8.88;;;8.02;;
71303;SDS011;59091;47.446;19.148;2023-06-10T10:55:24;11.93;;;8.55;;
71303;SDS011;59091;47.446;19.148;2023-06-10T10:57:55;7.70;;;6.97;;
71303;SDS011;59091;47.446;19.148;2023-06-10T11:00:31;7.85;;;7.10;;
71303;SDS011;59091;47.446;19.148;2023-06-10T11:05:40;7.15;;;6.50;;
71303;SDS011;59091;47.446;19.148;2023-06-10T11:08:09;7.38;;;6.28;;
71303;SDS011;59091;47.446;19.148;2023-06-10T11:10:36;8.07;;;7.38;;
71303;SDS011;59091;47.446;19.148;2023-06-10T11:13:09;9.10;;;7.05;;
71303;SDS011;59091;47.446;19.148;2023-06-10T11:15:39;9.80;;;7.22;;
71303;SDS011;59091;47.446;19.148;2023-06-10T11:18:09;7.93;;;7.22;;
71303;SDS011;59091;47.446;19.148;2023-06-10T11:20:41;8.35;;;7.43;;
71303;SDS011;59091;47.446;19.148;2023-06-10T11:23:10;8.23;;;7.43;;
71303;SDS011;59091;47.446;19.148;2023-06-10T11:25:38;8.63;;;7.93;;
71303;SDS011;59091;47.446;19.148;2023-06-10T11:28:18;9.98;;;7.90;;
71303;SDS011;59091;47.446;19.148;2023-06-10T11:30:45;8.77;;;7.85;;
71303;SDS011;59091;47.446;19.148;2023-06-10T11:33:17;9.60;;;8.45;;
71303;SDS011;59091;47.446;19.148;2023-06-10T11:35:43;7.82;;;7.13;;
71303;SDS011;59091;47.446;19.148;2023-06-10T11:38:09;10.73;;;8.45;;
71303;SDS011;59091;47.446;19.148;2023-06-10T11:40:36;7.93;;;7.32;;
71303;SDS011;59091;47.446;19.148;2023-06-10T11:43:03;8.13;;;7.32;;
71303;SDS011;59091;47.446;19.148;2023-06-10T11:45:29;7.95;;;7.13;;
71303;SDS011;59091;47.446;19.148;2023-06-10T11:47:56;7.95;;;7.15;;
71303;SDS011;59091;47.446;19.148;2023-06-10T11:50:31;6.43;;;5.93;;
71303;SDS011;59091;47.446;19.148;2023-06-10T11:52:58;6.15;;;5.63;;
71303;SDS011;59091;47.446;19.148;2023-06-10T11:55:24;6.63;;;6.03;;
71303;SDS011;59091;47.446;19.148;2023-06-10T11:58:14;6.10;;;5.53;;
71303;SDS011;59091;47.446;19.148;2023-06-10T12:00:50;9.20;;;4.80;;
71303;SDS011;59091;47.446;19.148;2023-06-10T12:03:18;4.82;;;4.43;;
71303;SDS011;59091;47.446;19.148;2023-06-10T12:05:57;3.92;;;3.63;;
71303;SDS011;59091;47.446;19.148;2023-06-10T12:08:23;4.13;;;3.47;;
71303;SDS011;59091;47.446;19.148;2023-06-10T12:10:49;4.47;;;3.20;;
71303;SDS011;59091;47.446;19.148;2023-06-10T12:13:16;3.33;;;3.13;;
71303;SDS011;59091;47.446;19.148;2023-06-10T12:15:44;4.07;;;3.80;;
71303;SDS011;59091;47.446;19.148;2023-06-10T12:18:17;3.67;;;3.45;;
71303;SDS011;59091;47.446;19.148;2023-06-10T12:23:09;3.33;;;2.97;;
71303;SDS011;59091;47.446;19.148;2023-06-10T12:25:36;3.70;;;2.83;;
71303;SDS011;59091;47.446;19.148;2023-06-10T12:28:05;6.80;;;2.85;;
71303;SDS011;59091;47.446;19.148;2023-06-10T12:30:34;4.80;;;2.70;;
71303;SDS011;59091;47.446;19.148;2023-06-10T12:32:59;2.88;;;2.65;;
71303;SDS011;59091;47.446;19.148;2023-06-10T12:35:25;3.03;;;2.65;;
71303;SDS011;59091;47.446;19.148;2023-06-10T12:43:05;2.80;;;2.60;;
71303;SDS011;59091;47.446;19.148;2023-06-10T12:45:34;3.10;;;2.50;;
71303;SDS011;59091;47.446;19.148;2023-06-10T12:48:08;2.33;;;2.22;;
71303;SDS011;59091;47.446;19.148;2023-06-10T12:50:38;2.40;;;2.20;;
71303;SDS011;59091;47.446;19.148;2023-06-10T12:53:05;2.60;;;2.40;;
71303;SDS011;59091;47.446;19.148;2023-06-10T12:55:32;2.58;;;2.40;;
71303;SDS011;59091;47.446;19.148;2023-06-10T12:57:58;3.53;;;2.15;;
71303;SDS011;59091;47.446;19.148;2023-06-10T13:00:25;2.40;;;2.20;;
71303;SDS011;59091;47.446;19.148;2023-06-10T13:02:51;2.15;;;2.05;;
71303;SDS011;59091;47.446;19.148;2023-06-10T13:05:18;2.42;;;2.20;;
71303;SDS011;59091;47.446;19.148;2023-06-10T13:07:45;3.38;;;2.35;;
71303;SDS011;59091;47.446;19.148;2023-06-10T13:10:10;2.50;;;2.33;;
71303;SDS011;59091;47.446;19.148;2023-06-10T13:12:38;2.08;;;1.98;;
71303;SDS011;59091;47.446;19.148;2023-06-10T13:15:04;2.63;;;2.42;;
71303;SDS011;59091;47.446;19.148;2023-06-10T13:17:30;4.30;;;2.45;;
71303;SDS011;59091;47.446;19.148;2023-06-10T13:19:55;3.03;;;2.83;;
71303;SDS011;59091;47.446;19.148;2023-06-10T13:22:20;2.45;;;2.25;;
71303;SDS011;59091;47.446;19.148;2023-06-10T13:24:47;3.33;;;2.42;;
71303;SDS011;59091;47.446;19.148;2023-06-10T13:27:12;2.25;;;2.15;;
71303;SDS011;59091;47.446;19.148;2023-06-10T13:29:39;2.50;;;2.30;;
71303;SDS011;59091;47.446;19.148;2023-06-10T13:32:05;2.50;;;2.30;;
71303;SDS011;59091;47.446;19.148;2023-06-10T13:34:31;2.28;;;2.17;;
71303;SDS011;59091;47.446;19.148;2023-06-10T13:36:57;2.38;;;2.22;;
71303;SDS011;59091;47.446;19.148;2023-06-10T13:39:22;2.70;;;2.50;;
71303;SDS011;59091;47.446;19.148;2023-06-10T13:41:48;2.40;;;2.30;;
71303;SDS011;59091;47.446;19.148;2023-06-10T13:44:13;2.50;;;2.40;;
71303;SDS011;59091;47.446;19.148;2023-06-10T13:46:39;2.90;;;2.60;;
71303;SDS011;59091;47.446;19.148;2023-06-10T13:49:05;2.67;;;2.47;;
71303;SDS011;59091;47.446;19.148;2023-06-10T13:51:30;4.65;;;2.95;;
71303;SDS011;59091;47.446;19.148;2023-06-10T13:53:55;3.88;;;2.50;;
71303;SDS011;59091;47.446;19.148;2023-06-10T13:56:21;2.22;;;2.10;;
71303;SDS011;59091;47.446;19.148;2023-06-10T13:58:46;2.70;;;2.50;;
71303;SDS011;59091;47.446;19.148;2023-06-10T14:01:12;2.33;;;2.22;;
71303;SDS011;59091;47.446;19.148;2023-06-10T14:03:37;2.50;;;2.40;;
71303;SDS011;59091;47.446;19.148;2023-06-10T14:06:02;2.70;;;2.50;;
71303;SDS011;59091;47.446;19.148;2023-06-10T14:08:29;2.80;;;2.60;;
71303;SDS011;59091;47.446;19.148;2023-06-10T14:10:54;3.33;;;2.95;;
71303;SDS011;59091;47.446;19.148;2023-06-10T14:13:20;6.22;;;3.97;;
71303;SDS011;59091;47.446;19.148;2023-06-10T14:15:45;4.30;;;3.90;;
71303;SDS011;59091;47.446;19.148;2023-06-10T14:18:11;5.25;;;4.70;;
71303;SDS011;59091;47.446;19.148;2023-06-10T14:20:37;4.40;;;4.00;;
71303;SDS011;59091;47.446;19.148;2023-06-10T14:23:02;5.28;;;4.88;;
71303;SDS011;59091;47.446;19.148;2023-06-10T14:25:28;9.32;;;4.32;;
71303;SDS011;59091;47.446;19.148;2023-06-10T14:27:53;6.63;;;4.80;;
71303;SDS011;59091;47.446;19.148;2023-06-10T14:30:19;5.95;;;4.72;;
71303;SDS011;59091;47.446;19.148;2023-06-10T14:32:44;5.20;;;4.65;;
71303;SDS011;59091;47.446;19.148;2023-06-10T14:35:10;5.13;;;4.70;;
71303;SDS011;59091;47.446;19.148;2023-06-10T14:37:36;6.03;;;4.38;;
71303;SDS011;59091;47.446;19.148;2023-06-10T14:40:02;5.28;;;4.28;;
71303;SDS011;59091;47.446;19.148;2023-06-10T14:42:28;4.85;;;4.45;;
71303;SDS011;59091;47.446;19.148;2023-06-10T14:44:54;4.30;;;4.00;;